sensor_id;sensor_type;location;lat;lon;timestamp;P1;durP1;ratioP1;P2;durP2;ratioP2
57327;SDS011;43162;51.040;18.244;2024-03-02T00:00:10;86.00;;;42.20;;
57327;SDS011;43162;51.040;18.244;2024-03-02T00:02:44;90.90;;;42.60;;
57327;SDS011;43162;51.040;18.244;2024-03-02T00:05:20;75.30;;;39.20;;
57327;SDS011;43162;51.040;18.244;2024-03-02T00:07:57;82.30;;;39.20;;
57327;SDS011;43162;51.040;18.244;2024-03-02T00:10:25;77.30;;;39.00;;
57327;SDS011;43162;51.040;18.244;2024-03-02T00:12:57;74.00;;;39.00;;
57327;SDS011;43162;51.040;18.244;2024-03-02T00:18:25;91.70;;;40.20;;
57327;SDS011;43162;51.040;18.244;2024-03-02T00:20:58;89.90;;;41.20;;
57327;SDS011;43162;51.040;18.244;2024-03-02T00:23:24;80.20;;;40.70;;
57327;SDS011;43162;51.040;18.244;2024-03-02T00:25:53;89.30;;;43.20;;
57327;SDS011;43162;51.040;18.244;2024-03-02T00:28:20;83.30;;;40.00;;
57327;SDS011;43162;51.040;18.244;2024-03-02T00:33:22;85.80;;;41.40;;
57327;SDS011;43162;51.040;18.244;2024-03-02T00:35:49;82.40;;;42.50;;
57327;SDS011;43162;51.040;18.244;2024-03-02T00:38:15;86.40;;;43.00;;
57327;SDS011;43162;51.040;18.244;2024-03-02T00:40:44;88.30;;;42.50;;
57327;SDS011;43162;51.040;18.244;2024-03-02T00:43:33;77.20;;;38.40;;
57327;SDS011;43162;51.040;18.244;2024-03-02T00:46:00;83.10;;;39.90;;
57327;SDS011;43162;51.040;18.244;2024-03-02T00:48:26;86.30;;;40.80;;
57327;SDS011;43162;51.040;18.244;2024-03-02T00:50:52;77.90;;;37.80;;
57327;SDS011;43162;51.040;18.244;2024-03-02T00:53:17;90.60;;;42.50;;
57327;SDS011;43162;51.040;18.244;2024-03-02T00:55:49;90.60;;;44.20;;
57327;SDS011;43162;51.040;18.244;2024-03-02T00:58:14;77.80;;;39.50;;
57327;SDS011;43162;51.040;18.244;2024-03-02T01:00:40;80.90;;;39.10;;
57327;SDS011;43162;51.040;18.244;2024-03-02T01:03:06;81.70;;;41.80;;
57327;SDS011;43162;51.040;18.244;2024-03-02T01:05:33;86.50;;;41.30;;
57327;SDS011;43162;51.040;18.244;2024-03-02T01:07:59;88.90;;;42.60;;
57327;SDS011;43162;51.040;18.244;2024-03-02T01:10:24;87.90;;;42.50;;
57327;SDS011;43162;51.040;18.244;2024-03-02T01:12:51;84.40;;;39.90;;
57327;SDS011;43162;51.040;18.244;2024-03-02T01:15:17;83.50;;;42.40;;
57327;SDS011;43162;51.040;18.244;2024-03-02T01:17:42;78.10;;;38.80;;
57327;SDS011;43162;51.040;18.244;2024-03-02T01:20:08;82.30;;;39.30;;
57327;SDS011;43162;51.040;18.244;2024-03-02T01:22:35;83.00;;;41.90;;
57327;SDS011;43162;51.040;18.244;2024-03-02T01:25:01;82.10;;;41.00;;
57327;SDS011;43162;51.040;18.244;2024-03-02T01:27:27;87.50;;;41.50;;
57327;SDS011;43162;51.040;18.244;2024-03-02T01:29:53;87.80;;;41.90;;
57327;SDS011;43162;51.040;18.244;2024-03-02T01:32:19;75.20;;;40.20;;
57327;SDS011;43162;51.040;18.244;2024-03-02T01:34:45;79.80;;;41.30;;
57327;SDS011;43162;51.040;18.244;2024-03-02T01:37:11;82.50;;;39.90;;
57327;SDS011;43162;51.040;18.244;2024-03-02T01:39:36;92.40;;;42.50;;
57327;SDS011;43162;51.040;18.244;2024-03-02T01:42:02;86.50;;;42.80;;
57327;SDS011;43162;51.040;18.244;2024-03-02T01:44:27;85.00;;;41.90;;
57327;SDS011;43162;51.040;18.244;2024-03-02T01:46:53;91.80;;;42.40;;
57327;SDS011;43162;51.040;18.244;2024-03-02T01:49:18;74.90;;;40.00;;
57327;SDS011;43162;51.040;18.244;2024-03-02T01:51:44;85.30;;;39.50;;
57327;SDS011;43162;51.040;18.244;2024-03-02T01:54:09;84.80;;;41.60;;
57327;SDS011;43162;51.040;18.244;2024-03-02T01:56:35;90.20;;;42.50;;
57327;SDS011;43162;51.040;18.244;2024-03-02T01:59:01;78.10;;;40.60;;
57327;SDS011;43162;51.040;18.244;2024-03-02T02:01:27;81.70;;;38.50;;
57327;SDS011;43162;51.040;18.244;2024-03-02T02:03:52;81.80;;;40.90;;
57327;SDS011;43162;51.040;18.244;2024-03-02T02:06:18;73.10;;;39.30;;
57327;SDS011;43162;51.040;18.244;2024-03-02T02:08:43;79.40;;;41.70;;
57327;SDS011;43162;51.040;18.244;2024-03-02T02:11:10;75.60;;;39.20;;
57327;SDS011;43162;51.040;18.244;2024-03-02T02:13:36;87.10;;;41.70;;
57327;SDS011;43162;51.040;18.244;2024-03-02T02:16:08;79.90;;;42.20;;
57327;SDS011;43162;51.040;18.244;2024-03-02T02:18:34;78.40;;;40.20;;
57327;SDS011;43162;51.040;18.244;2024-03-02T02:21:01;75.20;;;37.30;;
57327;SDS011;43162;51.040;18.244;2024-03-02T02:23:27;76.00;;;40.40;;
57327;SDS011;43162;51.040;18.244;2024-03-02T02:25:52;81.10;;;40.30;;
57327;SDS011;43162;51.040;18.244;2024-03-02T02:28:18;81.70;;;40.30;;
57327;SDS011;43162;51.040;18.244;2024-03-02T02:30:43;80.90;;;41.70;;
57327;SDS011;43162;51.040;18.244;2024-03-02T02:33:09;83.60;;;40.90;;
57327;SDS011;43162;51.040;18.244;2024-03-02T02:35:34;75.60;;;36.40;;
57327;SDS011;43162;51.040;18.244;2024-03-02T02:38:00;78.30;;;40.70;;
57327;SDS011;43162;51.040;18.244;2024-03-02T02:40:26;76.40;;;36.50;;
57327;SDS011;43162;51.040;18.244;2024-03-02T02:42:52;78.10;;;41.50;;
57327;SDS011;43162;51.040;18.244;2024-03-02T02:45:18;84.10;;;42.80;;
57327;SDS011;43162;51.040;18.244;2024-03-02T02:47:44;81.40;;;39.80;;
57327;SDS011;43162;51.040;18.244;2024-03-02T02:50:10;80.70;;;40.60;;
57327;SDS011;43162;51.040;18.244;2024-03-02T02:52:37;80.20;;;42.00;;
57327;SDS011;43162;51.040;18.244;2024-03-02T02:55:06;81.30;;;41.00;;
57327;SDS011;43162;51.040;18.244;2024-03-02T02:57:33;76.10;;;40.30;;
57327;SDS011;43162;51.040;18.244;2024-03-02T03:00:03;87.60;;;41.50;;
57327;SDS011;43162;51.040;18.244;2024-03-02T03:02:34;87.30;;;43.00;;
57327;SDS011;43162;51.040;18.244;2024-03-02T03:05:00;85.90;;;42.50;;
57327;SDS011;43162;51.040;18.244;2024-03-02T03:07:25;82.40;;;44.60;;
57327;SDS011;43162;51.040;18.244;2024-03-02T03:09:51;75.70;;;39.90;;
57327;SDS011;43162;51.040;18.244;2024-03-02T03:12:16;68.50;;;37.30;;
57327;SDS011;43162;51.040;18.244;2024-03-02T03:14:42;84.10;;;42.50;;
57327;SDS011;43162;51.040;18.244;2024-03-02T03:17:08;81.40;;;41.80;;
57327;SDS011;43162;51.040;18.244;2024-03-02T03:19:34;78.90;;;41.50;;
57327;SDS011;43162;51.040;18.244;2024-03-02T03:22:01;76.90;;;42.00;;
57327;SDS011;43162;51.040;18.244;2024-03-02T03:24:26;76.30;;;38.30;;
57327;SDS011;43162;51.040;18.244;2024-03-02T03:26:52;81.50;;;40.50;;
57327;SDS011;43162;51.040;18.244;2024-03-02T03:29:17;79.60;;;40.70;;
57327;SDS011;43162;51.040;18.244;2024-03-02T03:31:43;84.70;;;44.10;;
57327;SDS011;43162;51.040;18.244;2024-03-02T03:34:08;73.50;;;40.70;;
57327;SDS011;43162;51.040;18.244;2024-03-02T03:36:34;77.10;;;39.30;;
57327;SDS011;43162;51.040;18.244;2024-03-02T03:39:00;82.40;;;39.90;;
57327;SDS011;43162;51.040;18.244;2024-03-02T03:41:27;75.00;;;40.70;;
57327;SDS011;43162;51.040;18.244;2024-03-02T03:43:53;78.80;;;42.10;;
57327;SDS011;43162;51.040;18.244;2024-03-02T03:46:19;84.30;;;42.10;;
57327;SDS011;43162;51.040;18.244;2024-03-02T03:48:44;75.90;;;39.30;;
57327;SDS011;43162;51.040;18.244;2024-03-02T03:51:10;82.30;;;42.40;;
57327;SDS011;43162;51.040;18.244;2024-03-02T03:53:35;76.10;;;38.70;;
57327;SDS011;43162;51.040;18.244;2024-03-02T03:56:01;75.40;;;40.30;;
57327;SDS011;43162;51.040;18.244;2024-03-02T03:58:26;76.10;;;42.40;;
57327;SDS011;43162;51.040;18.244;2024-03-02T04:00:52;75.70;;;38.50;;
57327;SDS011;43162;51.040;18.244;2024-03-02T04:03:18;75.40;;;37.70;;
57327;SDS011;43162;51.040;18.244;2024-03-02T04:05:43;77.60;;;38.90;;
57327;SDS011;43162;51.040;18.244;2024-03-02T04:08:09;70.00;;;36.80;;
57327;SDS011;43162;51.040;18.244;2024-03-02T04:10:34;69.90;;;37.50;;
57327;SDS011;43162;51.040;18.244;2024-03-02T04:13:00;76.80;;;37.90;;
57327;SDS011;43162;51.040;18.244;2024-03-02T04:15:25;73.80;;;39.40;;
57327;SDS011;43162;51.040;18.244;2024-03-02T04:17:51;79.90;;;40.30;;
57327;SDS011;43162;51.040;18.244;2024-03-02T04:20:17;76.20;;;38.20;;
57327;SDS011;43162;51.040;18.244;2024-03-02T04:22:42;71.00;;;36.80;;
57327;SDS011;43162;51.040;18.244;2024-03-02T04:25:08;73.20;;;37.90;;
57327;SDS011;43162;51.040;18.244;2024-03-02T04:27:34;69.10;;;37.40;;
57327;SDS011;43162;51.040;18.244;2024-03-02T04:30:00;63.70;;;35.20;;
57327;SDS011;43162;51.040;18.244;2024-03-02T04:32:26;73.10;;;37.90;;
57327;SDS011;43162;51.040;18.244;2024-03-02T04:34:52;72.20;;;39.90;;
57327;SDS011;43162;51.040;18.244;2024-03-02T04:37:17;68.50;;;37.40;;
57327;SDS011;43162;51.040;18.244;2024-03-02T04:39:43;68.70;;;35.50;;
57327;SDS011;43162;51.040;18.244;2024-03-02T04:42:08;67.90;;;37.60;;
57327;SDS011;43162;51.040;18.244;2024-03-02T04:44:34;72.00;;;38.40;;
57327;SDS011;43162;51.040;18.244;2024-03-02T04:46:59;64.70;;;35.20;;
57327;SDS011;43162;51.040;18.244;2024-03-02T04:49:25;68.90;;;34.80;;
57327;SDS011;43162;51.040;18.244;2024-03-02T04:51:50;61.80;;;33.00;;
57327;SDS011;43162;51.040;18.244;2024-03-02T04:54:16;64.10;;;34.90;;
57327;SDS011;43162;51.040;18.244;2024-03-02T04:56:42;67.60;;;34.20;;
57327;SDS011;43162;51.040;18.244;2024-03-02T04:59:17;67.00;;;36.70;;
57327;SDS011;43162;51.040;18.244;2024-03-02T05:01:44;67.00;;;35.00;;
57327;SDS011;43162;51.040;18.244;2024-03-02T05:04:10;68.50;;;36.50;;
57327;SDS011;43162;51.040;18.244;2024-03-02T05:06:39;65.80;;;33.40;;
57327;SDS011;43162;51.040;18.244;2024-03-02T05:09:08;65.60;;;36.30;;
57327;SDS011;43162;51.040;18.244;2024-03-02T05:11:34;66.70;;;37.20;;
57327;SDS011;43162;51.040;18.244;2024-03-02T05:14:03;67.10;;;33.80;;
57327;SDS011;43162;51.040;18.244;2024-03-02T05:16:32;61.30;;;32.60;;
57327;SDS011;43162;51.040;18.244;2024-03-02T05:18:58;62.30;;;33.80;;
57327;SDS011;43162;51.040;18.244;2024-03-02T05:21:24;61.40;;;33.90;;
57327;SDS011;43162;51.040;18.244;2024-03-02T05:23:49;62.90;;;33.90;;
57327;SDS011;43162;51.040;18.244;2024-03-02T05:26:15;63.20;;;34.00;;
57327;SDS011;43162;51.040;18.244;2024-03-02T05:28:40;58.60;;;32.40;;
57327;SDS011;43162;51.040;18.244;2024-03-02T05:31:06;65.30;;;34.20;;
57327;SDS011;43162;51.040;18.244;2024-03-02T05:33:32;62.90;;;34.90;;
57327;SDS011;43162;51.040;18.244;2024-03-02T05:35:58;64.30;;;32.80;;
57327;SDS011;43162;51.040;18.244;2024-03-02T05:38:24;61.80;;;33.80;;
57327;SDS011;43162;51.040;18.244;2024-03-02T05:40:49;65.80;;;34.30;;
57327;SDS011;43162;51.040;18.244;2024-03-02T05:43:15;66.20;;;35.50;;
57327;SDS011;43162;51.040;18.244;2024-03-02T05:45:41;60.70;;;34.20;;
57327;SDS011;43162;51.040;18.244;2024-03-02T05:48:07;62.80;;;33.90;;
57327;SDS011;43162;51.040;18.244;2024-03-02T05:50:33;66.80;;;38.40;;
57327;SDS011;43162;51.040;18.244;2024-03-02T05:52:58;65.40;;;33.50;;
57327;SDS011;43162;51.040;18.244;2024-03-02T05:55:24;59.60;;;32.60;;
57327;SDS011;43162;51.040;18.244;2024-03-02T05:57:50;61.40;;;32.80;;
57327;SDS011;43162;51.040;18.244;2024-03-02T06:03:06;52.70;;;29.20;;
57327;SDS011;43162;51.040;18.244;2024-03-02T06:05:33;61.40;;;30.50;;
57327;SDS011;43162;51.040;18.244;2024-03-02T06:07:58;54.90;;;31.40;;
57327;SDS011;43162;51.040;18.244;2024-03-02T06:10:24;58.10;;;32.00;;
57327;SDS011;43162;51.040;18.244;2024-03-02T06:12:49;58.90;;;34.00;;
57327;SDS011;43162;51.040;18.244;2024-03-02T06:15:15;61.30;;;32.10;;
57327;SDS011;43162;51.040;18.244;2024-03-02T06:17:40;57.70;;;30.70;;
57327;SDS011;43162;51.040;18.244;2024-03-02T06:20:06;60.70;;;31.40;;
57327;SDS011;43162;51.040;18.244;2024-03-02T06:22:33;53.30;;;29.70;;
57327;SDS011;43162;51.040;18.244;2024-03-02T06:24:59;51.20;;;29.60;;
57327;SDS011;43162;51.040;18.244;2024-03-02T06:27:24;51.50;;;28.50;;
57327;SDS011;43162;51.040;18.244;2024-03-02T06:29:50;56.40;;;30.60;;
57327;SDS011;43162;51.040;18.244;2024-03-02T06:32:16;55.90;;;31.20;;
57327;SDS011;43162;51.040;18.244;2024-03-02T06:34:42;59.80;;;32.70;;
57327;SDS011;43162;51.040;18.244;2024-03-02T06:37:08;63.20;;;32.30;;
57327;SDS011;43162;51.040;18.244;2024-03-02T06:39:33;51.10;;;30.30;;
57327;SDS011;43162;51.040;18.244;2024-03-02T06:42:00;55.20;;;32.40;;
57327;SDS011;43162;51.040;18.244;2024-03-02T06:44:25;52.00;;;29.50;;
57327;SDS011;43162;51.040;18.244;2024-03-02T06:46:51;58.90;;;28.90;;
57327;SDS011;43162;51.040;18.244;2024-03-02T06:49:16;50.20;;;28.80;;
57327;SDS011;43162;51.040;18.244;2024-03-02T06:51:43;57.30;;;31.30;;
57327;SDS011;43162;51.040;18.244;2024-03-02T06:54:09;61.00;;;34.20;;
57327;SDS011;43162;51.040;18.244;2024-03-02T06:56:35;54.50;;;32.00;;
57327;SDS011;43162;51.040;18.244;2024-03-02T06:59:00;59.90;;;31.30;;
57327;SDS011;43162;51.040;18.244;2024-03-02T07:01:26;54.60;;;29.40;;
57327;SDS011;43162;51.040;18.244;2024-03-02T07:03:53;48.40;;;29.50;;
57327;SDS011;43162;51.040;18.244;2024-03-02T07:06:19;57.00;;;29.30;;
57327;SDS011;43162;51.040;18.244;2024-03-02T07:08:44;52.00;;;29.20;;
57327;SDS011;43162;51.040;18.244;2024-03-02T07:11:10;53.40;;;30.50;;
57327;SDS011;43162;51.040;18.244;2024-03-02T07:13:35;53.90;;;31.20;;
57327;SDS011;43162;51.040;18.244;2024-03-02T07:16:01;49.00;;;27.70;;
57327;SDS011;43162;51.040;18.244;2024-03-02T07:18:26;53.90;;;32.90;;
57327;SDS011;43162;51.040;18.244;2024-03-02T07:20:52;55.50;;;30.90;;
57327;SDS011;43162;51.040;18.244;2024-03-02T07:23:17;53.10;;;31.30;;
57327;SDS011;43162;51.040;18.244;2024-03-02T07:25:43;49.00;;;29.30;;
57327;SDS011;43162;51.040;18.244;2024-03-02T07:28:09;49.80;;;27.80;;
57327;SDS011;43162;51.040;18.244;2024-03-02T07:30:34;51.90;;;29.00;;
57327;SDS011;43162;51.040;18.244;2024-03-02T07:32:59;46.60;;;26.90;;
57327;SDS011;43162;51.040;18.244;2024-03-02T07:35:25;53.90;;;28.50;;
57327;SDS011;43162;51.040;18.244;2024-03-02T07:37:56;50.20;;;28.10;;
57327;SDS011;43162;51.040;18.244;2024-03-02T07:40:22;47.40;;;26.30;;
57327;SDS011;43162;51.040;18.244;2024-03-02T07:42:48;53.80;;;29.40;;
57327;SDS011;43162;51.040;18.244;2024-03-02T07:45:14;56.50;;;29.50;;
57327;SDS011;43162;51.040;18.244;2024-03-02T07:47:40;51.60;;;29.20;;
57327;SDS011;43162;51.040;18.244;2024-03-02T07:50:06;51.80;;;29.50;;
57327;SDS011;43162;51.040;18.244;2024-03-02T07:52:32;54.40;;;29.70;;
57327;SDS011;43162;51.040;18.244;2024-03-02T07:54:58;48.40;;;30.10;;
57327;SDS011;43162;51.040;18.244;2024-03-02T07:57:24;48.90;;;29.50;;
57327;SDS011;43162;51.040;18.244;2024-03-02T07:59:50;45.30;;;28.40;;
57327;SDS011;43162;51.040;18.244;2024-03-02T08:02:16;49.00;;;29.90;;
57327;SDS011;43162;51.040;18.244;2024-03-02T08:04:42;54.10;;;30.20;;
57327;SDS011;43162;51.040;18.244;2024-03-02T08:07:08;46.20;;;29.60;;
57327;SDS011;43162;51.040;18.244;2024-03-02T08:09:34;50.10;;;28.80;;
57327;SDS011;43162;51.040;18.244;2024-03-02T08:12:00;49.40;;;29.00;;
57327;SDS011;43162;51.040;18.244;2024-03-02T08:14:25;46.90;;;24.90;;
57327;SDS011;43162;51.040;18.244;2024-03-02T08:16:51;42.80;;;26.80;;
57327;SDS011;43162;51.040;18.244;2024-03-02T08:19:16;45.10;;;24.90;;
57327;SDS011;43162;51.040;18.244;2024-03-02T08:21:42;42.10;;;24.80;;
57327;SDS011;43162;51.040;18.244;2024-03-02T08:24:08;41.70;;;25.80;;
57327;SDS011;43162;51.040;18.244;2024-03-02T08:26:34;40.40;;;25.90;;
57327;SDS011;43162;51.040;18.244;2024-03-02T08:29:00;43.10;;;25.80;;
57327;SDS011;43162;51.040;18.244;2024-03-02T08:31:29;55.50;;;29.00;;
57327;SDS011;43162;51.040;18.244;2024-03-02T08:33:55;45.90;;;27.90;;
57327;SDS011;43162;51.040;18.244;2024-03-02T08:36:22;37.90;;;25.30;;
57327;SDS011;43162;51.040;18.244;2024-03-02T08:38:51;42.50;;;24.90;;
57327;SDS011;43162;51.040;18.244;2024-03-02T08:41:16;39.90;;;24.70;;
57327;SDS011;43162;51.040;18.244;2024-03-02T08:43:42;45.40;;;24.60;;
57327;SDS011;43162;51.040;18.244;2024-03-02T08:46:08;41.90;;;24.00;;
57327;SDS011;43162;51.040;18.244;2024-03-02T08:48:34;39.10;;;24.00;;
57327;SDS011;43162;51.040;18.244;2024-03-02T08:50:59;49.20;;;25.20;;
57327;SDS011;43162;51.040;18.244;2024-03-02T08:53:25;35.40;;;23.50;;
57327;SDS011;43162;51.040;18.244;2024-03-02T08:55:51;39.70;;;23.50;;
57327;SDS011;43162;51.040;18.244;2024-03-02T08:58:18;38.70;;;23.30;;
57327;SDS011;43162;51.040;18.244;2024-03-02T09:00:43;33.10;;;22.10;;
57327;SDS011;43162;51.040;18.244;2024-03-02T09:03:09;33.40;;;21.60;;
57327;SDS011;43162;51.040;18.244;2024-03-02T09:05:35;39.60;;;22.50;;
57327;SDS011;43162;51.040;18.244;2024-03-02T09:08:01;35.90;;;22.80;;
57327;SDS011;43162;51.040;18.244;2024-03-02T09:10:28;33.80;;;20.60;;
57327;SDS011;43162;51.040;18.244;2024-03-02T09:12:54;33.90;;;20.60;;
57327;SDS011;43162;51.040;18.244;2024-03-02T09:15:20;32.70;;;20.40;;
57327;SDS011;43162;51.040;18.244;2024-03-02T09:17:45;32.20;;;20.70;;
57327;SDS011;43162;51.040;18.244;2024-03-02T09:20:11;33.80;;;21.00;;
57327;SDS011;43162;51.040;18.244;2024-03-02T09:22:37;33.30;;;20.80;;
57327;SDS011;43162;51.040;18.244;2024-03-02T09:25:03;29.60;;;19.90;;
57327;SDS011;43162;51.040;18.244;2024-03-02T09:27:29;31.90;;;19.70;;
57327;SDS011;43162;51.040;18.244;2024-03-02T09:29:54;32.10;;;20.70;;
57327;SDS011;43162;51.040;18.244;2024-03-02T09:32:20;26.20;;;18.60;;
57327;SDS011;43162;51.040;18.244;2024-03-02T09:34:45;33.80;;;19.60;;
57327;SDS011;43162;51.040;18.244;2024-03-02T09:37:13;33.50;;;19.70;;
57327;SDS011;43162;51.040;18.244;2024-03-02T09:39:39;34.70;;;19.60;;
57327;SDS011;43162;51.040;18.244;2024-03-02T09:42:05;27.20;;;18.80;;
57327;SDS011;43162;51.040;18.244;2024-03-02T09:44:31;29.00;;;18.40;;
57327;SDS011;43162;51.040;18.244;2024-03-02T09:46:56;33.90;;;19.60;;
57327;SDS011;43162;51.040;18.244;2024-03-02T09:49:22;27.80;;;17.90;;
57327;SDS011;43162;51.040;18.244;2024-03-02T09:51:48;25.90;;;18.40;;
57327;SDS011;43162;51.040;18.244;2024-03-02T09:54:17;28.30;;;16.50;;
57327;SDS011;43162;51.040;18.244;2024-03-02T09:56:43;31.80;;;19.30;;
57327;SDS011;43162;51.040;18.244;2024-03-02T09:59:09;38.40;;;22.10;;
57327;SDS011;43162;51.040;18.244;2024-03-02T10:01:35;38.30;;;21.10;;
57327;SDS011;43162;51.040;18.244;2024-03-02T10:04:00;39.50;;;22.00;;
57327;SDS011;43162;51.040;18.244;2024-03-02T10:06:28;37.70;;;23.40;;
57327;SDS011;43162;51.040;18.244;2024-03-02T10:08:54;38.80;;;24.40;;
57327;SDS011;43162;51.040;18.244;2024-03-02T10:16:37;37.50;;;22.40;;
57327;SDS011;43162;51.040;18.244;2024-03-02T10:19:17;36.70;;;22.50;;
57327;SDS011;43162;51.040;18.244;2024-03-02T10:21:44;36.40;;;21.50;;
57327;SDS011;43162;51.040;18.244;2024-03-02T10:24:15;39.00;;;21.40;;
57327;SDS011;43162;51.040;18.244;2024-03-02T10:26:41;34.30;;;21.60;;
57327;SDS011;43162;51.040;18.244;2024-03-02T10:29:07;35.10;;;20.60;;
57327;SDS011;43162;51.040;18.244;2024-03-02T10:31:36;30.40;;;20.10;;
57327;SDS011;43162;51.040;18.244;2024-03-02T10:34:03;30.20;;;21.50;;
57327;SDS011;43162;51.040;18.244;2024-03-02T10:36:29;32.00;;;22.00;;
57327;SDS011;43162;51.040;18.244;2024-03-02T10:38:56;32.90;;;20.80;;
57327;SDS011;43162;51.040;18.244;2024-03-02T10:41:24;29.70;;;20.10;;
57327;SDS011;43162;51.040;18.244;2024-03-02T10:43:53;37.80;;;21.80;;
57327;SDS011;43162;51.040;18.244;2024-03-02T10:46:31;32.00;;;22.20;;
57327;SDS011;43162;51.040;18.244;2024-03-02T10:48:58;36.70;;;21.50;;
57327;SDS011;43162;51.040;18.244;2024-03-02T10:51:28;35.00;;;21.60;;
57327;SDS011;43162;51.040;18.244;2024-03-02T10:54:00;35.90;;;21.80;;
57327;SDS011;43162;51.040;18.244;2024-03-02T10:56:30;34.80;;;21.90;;
57327;SDS011;43162;51.040;18.244;2024-03-02T10:59:03;31.50;;;20.60;;
57327;SDS011;43162;51.040;18.244;2024-03-02T11:01:47;33.30;;;22.50;;
57327;SDS011;43162;51.040;18.244;2024-03-02T11:04:13;34.90;;;21.30;;
57327;SDS011;43162;51.040;18.244;2024-03-02T11:06:46;47.00;;;22.40;;
57327;SDS011;43162;51.040;18.244;2024-03-02T11:09:13;34.40;;;22.80;;
57327;SDS011;43162;51.040;18.244;2024-03-02T11:11:40;33.60;;;21.10;;
57327;SDS011;43162;51.040;18.244;2024-03-02T11:14:11;26.70;;;18.70;;
57327;SDS011;43162;51.040;18.244;2024-03-02T11:16:39;31.00;;;20.50;;
57327;SDS011;43162;51.040;18.244;2024-03-02T11:19:07;31.10;;;18.70;;
57327;SDS011;43162;51.040;18.244;2024-03-02T11:21:35;33.60;;;20.30;;
57327;SDS011;43162;51.040;18.244;2024-03-02T11:24:28;31.70;;;19.10;;
57327;SDS011;43162;51.040;18.244;2024-03-02T11:26:50;30.80;;;18.40;;
57327;SDS011;43162;51.040;18.244;2024-03-02T11:32:04;35.80;;;22.10;;
57327;SDS011;43162;51.040;18.244;2024-03-02T11:34:33;35.50;;;22.00;;
57327;SDS011;43162;51.040;18.244;2024-03-02T11:37:03;35.50;;;21.20;;
57327;SDS011;43162;51.040;18.244;2024-03-02T11:39:29;37.30;;;22.80;;
57327;SDS011;43162;51.040;18.244;2024-03-02T11:41:56;36.00;;;24.00;;
57327;SDS011;43162;51.040;18.244;2024-03-02T11:44:22;37.10;;;24.50;;
57327;SDS011;43162;51.040;18.244;2024-03-02T11:46:52;43.20;;;26.40;;
57327;SDS011;43162;51.040;18.244;2024-03-02T11:49:45;46.00;;;27.00;;
57327;SDS011;43162;51.040;18.244;2024-03-02T11:52:12;40.90;;;24.40;;
57327;SDS011;43162;51.040;18.244;2024-03-02T11:54:39;42.00;;;27.30;;
57327;SDS011;43162;51.040;18.244;2024-03-02T11:57:06;41.60;;;25.30;;
57327;SDS011;43162;51.040;18.244;2024-03-02T11:59:32;41.70;;;28.30;;
57327;SDS011;43162;51.040;18.244;2024-03-02T12:01:58;48.00;;;27.50;;
57327;SDS011;43162;51.040;18.244;2024-03-02T12:04:24;41.70;;;26.80;;
57327;SDS011;43162;51.040;18.244;2024-03-02T12:06:59;46.30;;;27.50;;
57327;SDS011;43162;51.040;18.244;2024-03-02T12:09:27;46.80;;;27.10;;
57327;SDS011;43162;51.040;18.244;2024-03-02T12:12:02;42.40;;;27.20;;
57327;SDS011;43162;51.040;18.244;2024-03-02T12:14:30;47.70;;;27.40;;
57327;SDS011;43162;51.040;18.244;2024-03-02T12:16:56;46.20;;;29.70;;
57327;SDS011;43162;51.040;18.244;2024-03-02T12:19:24;47.80;;;30.80;;
57327;SDS011;43162;51.040;18.244;2024-03-02T12:21:51;50.30;;;32.10;;
57327;SDS011;43162;51.040;18.244;2024-03-02T12:24:18;50.90;;;33.60;;
57327;SDS011;43162;51.040;18.244;2024-03-02T12:26:44;50.80;;;33.00;;
57327;SDS011;43162;51.040;18.244;2024-03-02T12:29:10;56.10;;;35.80;;
57327;SDS011;43162;51.040;18.244;2024-03-02T12:31:35;51.10;;;33.00;;
57327;SDS011;43162;51.040;18.244;2024-03-02T12:34:01;45.80;;;31.10;;
57327;SDS011;43162;51.040;18.244;2024-03-02T12:36:28;56.50;;;34.50;;
57327;SDS011;43162;51.040;18.244;2024-03-02T12:38:54;52.90;;;33.20;;
57327;SDS011;43162;51.040;18.244;2024-03-02T12:41:20;52.70;;;32.20;;
57327;SDS011;43162;51.040;18.244;2024-03-02T12:43:46;51.20;;;31.20;;
57327;SDS011;43162;51.040;18.244;2024-03-02T12:46:11;50.30;;;31.60;;
57327;SDS011;43162;51.040;18.244;2024-03-02T12:48:37;51.00;;;33.40;;
57327;SDS011;43162;51.040;18.244;2024-03-02T12:51:06;55.10;;;34.00;;
57327;SDS011;43162;51.040;18.244;2024-03-02T12:53:31;58.30;;;36.20;;
57327;SDS011;43162;51.040;18.244;2024-03-02T12:55:57;57.30;;;35.50;;
57327;SDS011;43162;51.040;18.244;2024-03-02T12:58:24;60.30;;;35.10;;
57327;SDS011;43162;51.040;18.244;2024-03-02T13:00:49;54.90;;;34.30;;
57327;SDS011;43162;51.040;18.244;2024-03-02T13:03:17;52.80;;;32.00;;
57327;SDS011;43162;51.040;18.244;2024-03-02T13:05:48;60.30;;;34.60;;
57327;SDS011;43162;51.040;18.244;2024-03-02T13:08:16;58.40;;;37.10;;
57327;SDS011;43162;51.040;18.244;2024-03-02T13:10:41;57.20;;;35.00;;
57327;SDS011;43162;51.040;18.244;2024-03-02T13:13:07;65.60;;;37.40;;
57327;SDS011;43162;51.040;18.244;2024-03-02T13:15:33;54.50;;;36.40;;
57327;SDS011;43162;51.040;18.244;2024-03-02T13:18:00;55.20;;;35.80;;
57327;SDS011;43162;51.040;18.244;2024-03-02T13:20:29;60.30;;;36.50;;
57327;SDS011;43162;51.040;18.244;2024-03-02T13:22:57;57.20;;;34.60;;
57327;SDS011;43162;51.040;18.244;2024-03-02T13:25:22;54.70;;;34.10;;
57327;SDS011;43162;51.040;18.244;2024-03-02T13:27:48;53.60;;;36.00;;
57327;SDS011;43162;51.040;18.244;2024-03-02T13:30:13;55.20;;;35.90;;
57327;SDS011;43162;51.040;18.244;2024-03-02T13:32:39;59.30;;;36.60;;
57327;SDS011;43162;51.040;18.244;2024-03-02T13:35:05;58.00;;;36.50;;
57327;SDS011;43162;51.040;18.244;2024-03-02T13:37:30;60.60;;;35.20;;
57327;SDS011;43162;51.040;18.244;2024-03-02T13:39:56;54.10;;;33.80;;
57327;SDS011;43162;51.040;18.244;2024-03-02T13:42:21;60.40;;;35.90;;
57327;SDS011;43162;51.040;18.244;2024-03-02T13:44:47;61.80;;;34.90;;
57327;SDS011;43162;51.040;18.244;2024-03-02T13:47:14;52.90;;;34.20;;
57327;SDS011;43162;51.040;18.244;2024-03-02T13:49:40;55.40;;;36.80;;
57327;SDS011;43162;51.040;18.244;2024-03-02T13:52:10;66.50;;;37.90;;
57327;SDS011;43162;51.040;18.244;2024-03-02T13:54:36;56.30;;;34.20;;
57327;SDS011;43162;51.040;18.244;2024-03-02T13:57:03;53.60;;;34.20;;
57327;SDS011;43162;51.040;18.244;2024-03-02T13:59:29;60.40;;;36.80;;
57327;SDS011;43162;51.040;18.244;2024-03-02T14:01:55;60.10;;;35.00;;
57327;SDS011;43162;51.040;18.244;2024-03-02T14:04:20;59.30;;;37.20;;
57327;SDS011;43162;51.040;18.244;2024-03-02T14:06:46;61.10;;;38.10;;
57327;SDS011;43162;51.040;18.244;2024-03-02T14:09:11;56.70;;;37.70;;
57327;SDS011;43162;51.040;18.244;2024-03-02T14:11:37;59.10;;;36.10;;
57327;SDS011;43162;51.040;18.244;2024-03-02T14:14:02;56.50;;;35.00;;
57327;SDS011;43162;51.040;18.244;2024-03-02T14:16:28;54.40;;;35.40;;
57327;SDS011;43162;51.040;18.244;2024-03-02T14:18:53;60.50;;;37.50;;
57327;SDS011;43162;51.040;18.244;2024-03-02T14:21:19;56.30;;;35.10;;